CAI weather

Cairo International Airport
Cairo, Cairo Governorate, Egypt

Public forecast

Using degrees Celsius for public forecast. Weather courtesy of forecast.io.

METAR (pilot weather report)

Retrieved 2019/03/23 22:30 UTC (0 seconds ago):

HECA 232230Z 02013KT CAVOK 16/14 Q1005 NOSIG

TAF (pilot weather forecast)

Retrieved 2019/03/23 18:40 UTC (4 hours ago):

TAF HECA 231700Z 2318/2424 03013G23KT 9999 SCT025 BECMG 2400/2402 02006KT TEMPO 2400/2406 VRB03KT 4000 BR PROB30 TEMPO 2403/2406 2000 TEMPO 2408/2418 30014G26KT 4000 SA